Flight Track Log - Related Links

Times and Time Zones

All times are in EDT time to prevent confusion due to time zone crossing. See the SWA214 flight status page for this flight to view local times or setup timezone preferences in your user account.

Time Position Orientation Groundspeed Altitude Reporting Facility
EDT Latitude Longitude Course Direction KTS MPH feet Rate Location/Type
Tue 08:17:36 PM 32.8286 -96.8364 128° Southeast 161 185 1,400  Level FAA TRACON SMA TRACON (SMA)
Tue 08:18:17 PM 32.8075 -96.8044 128° Southeast 184 212 2,800 2,488 Climbing FAA TRACON SMA TRACON (SMA)
Tue 08:18:58 PM 32.7822 -96.7664 67° East 215 247 4,800 2,850 Climbing FAA TRACON SMA TRACON (SMA)
Tue 08:19:37 PM 32.7969 -96.7247 North 257 296 6,600 2,700 Climbing FAA TRACON SMA TRACON (SMA)
Tue 08:20:18 PM 32.8508 -96.7153 North 288 331 8,400 3,000 Climbing FAA TRACON SMA TRACON (SMA)
Tue 08:20:57 PM 32.9053 -96.7122 331° Northwest 287 330 10,600 2,203 Climbing FAA TRACON SMA TRACON (SMA)
Tue 08:21:37 PM 32.9522 -96.7433 329° Northwest 316 364 11,300 2,175 Climbing FAA TRACON SMA TRACON (SMA)
Tue 08:22:17 PM 33.0075 -96.7822 329° Northwest 333 383 13,500 2,850 Climbing FAA TRACON SMA TRACON (SMA)
Tue 08:22:57 PM 33.0633 -96.8222 329° Northwest 338 389 15,100 2,148 Climbing FAA TRACON SMA TRACON (SMA)
Tue 08:23:38 PM 33.1156 -96.8603 336° Northwest 356 410 16,400 2,354 Climbing FAA TRACON SMA TRACON (SMA)
Tue 08:24:16 PM 33.1794 -96.8939 10° North 372 428 18,200 2,615 Climbing FAA TRACON SMA TRACON (SMA)
Tue 08:24:56 PM 33.2514 -96.8789 13° North 379 436 19,800 2,241 Climbing FAA TRACON SMA TRACON (SMA)
Tue 08:25:39 PM 33.3233 -96.8589 13° North 384 442 21,300 2,000 Climbing FAA TRACON SMA TRACON (SMA)
Tue 08:26:17 PM 33.3886 -96.8414 13° North 390 449 22,500 1,823 Climbing FAA TRACON SMA TRACON (SMA)
Tue 08:26:58 PM 33.4633 -96.8208 12° North 397 457 23,700 1,630 Climbing FAA TRACON SMA TRACON (SMA)
Tue 08:27:38 PM 33.5314 -96.8031 13° North 408 470 24,700 1,481 Climbing FAA TRACON SMA TRACON (SMA)
Tue 08:28:19 PM 33.6097 -96.7814 13° North 418 481 25,700 1,481 Climbing FAA TRACON SMA TRACON (SMA)
Tue 08:28:59 PM 33.6894 -96.7589 11° North 424 488 26,700 1,200 Climbing FAA TRACON SMA TRACON (SMA)
Tue 08:29:39 PM 33.7628 -96.7411 14° North 438 504 27,300 1,098 Climbing FAA TRACON SMA TRACON (SMA)
Tue 08:30:21 PM 33.8472 -96.7164 15° North 450 518 28,200 1,370 Climbing FAA TRACON SMA TRACON (SMA)
Tue 08:31:11 PM 33.9564 -96.6822 12° North 439 505 29,400 1,527 Climbing Fort Worth Center
Tue 08:32:11 PM 34.0772 -96.6511 14° North 449 517 31,000 1,550 Climbing Fort Worth Center
Tue 08:33:11 PM 34.1939 -96.6150 13° North 436 502 32,500 1,150 Climbing Fort Worth Center
Tue 08:34:11 PM 34.3147 -96.5811 14° North 436 502 33,300 900 Climbing Fort Worth Center
Tue 08:35:11 PM 34.4394 -96.5422 13° North 441 507 34,300 1,000 Climbing Fort Worth Center
Tue 08:36:11 PM 34.5644 -96.5083 13° North 448 516 35,300 1,100 Climbing Fort Worth Center
Tue 08:37:11 PM 34.6853 -96.4742 14° North 448 516 36,500 850 Climbing Fort Worth Center
Tue 08:38:11 PM 34.7831 -96.4453 14° North 448 516 37,000 250 Climbing Fort Worth Center
Tue 08:39:11 PM 34.9161 -96.4058 13° North 448 516 37,000  Level Fort Worth Center
Tue 08:40:11 PM 35.0369 -96.3714 14° North 448 516 37,000  Level Fort Worth Center
Tue 08:41:11 PM 35.1575 -96.3342 13° North 448 516 37,000  Level Fort Worth Center
Tue 08:42:11 PM 35.2803 -96.2997 14° North 448 516 37,000  Level Fort Worth Center
Tue 08:43:48 PM 35.4742 -96.2403 13° North 455 524 37,000  Level Kansas City Center
Tue 08:44:48 PM 35.5936 -96.2072 13° North 450 518 37,000  Level Kansas City Center
Tue 08:45:48 PM 35.7089 -96.1739 13° North 438 504 37,000  Level Kansas City Center
Tue 08:46:48 PM 35.8389 -96.1381 13° North 431 496 37,000  Level Kansas City Center
Tue 08:47:48 PM 35.9539 -96.1047 14° North 431 496 37,000  Level Kansas City Center
Tue 08:48:48 PM 36.0714 -96.0683 13° North 431 496 37,000  Level Kansas City Center
Tue 08:49:48 PM 36.1864 -96.0347 13° North 431 496 37,000  Level Kansas City Center
Tue 08:50:48 PM 36.2892 -96.0058 14° North 426 490 37,000  Level Kansas City Center
Tue 08:51:48 PM 36.4044 -95.9692 13° North 426 490 37,000  Level Kansas City Center
Tue 08:52:48 PM 36.5194 -95.9353 15° North 421 484 37,000  Level Kansas City Center
Tue 08:53:48 PM 36.6325 -95.8986 13° North 416 479 37,000  Level Kansas City Center
Tue 08:54:48 PM 36.7478 -95.8644 15° North 416 479 37,000  Level Kansas City Center
Tue 08:55:48 PM 36.8586 -95.8272 12° North 416 479 37,000  Level Kansas City Center
Tue 08:56:48 PM 36.9739 -95.7956 14° North 416 479 37,000  Level Kansas City Center
Tue 08:57:48 PM 37.0869 -95.7608 14° North 416 479 37,000  Level Kansas City Center
Tue 08:58:48 PM 37.1997 -95.7264 15° North 416 479 37,000  Level Kansas City Center
Tue 08:59:48 PM 37.3108 -95.6889 14° North 416 479 37,000  Level Kansas City Center
Tue 09:00:48 PM 37.4236 -95.6542 15° North 411 473 37,000  Level Kansas City Center
Tue 09:01:48 PM 37.5367 -95.6164 12° North 411 473 37,000 -200 Level Kansas City Center
Tue 09:02:48 PM 37.6475 -95.5867 North 411 473 36,600 -700 Descending Kansas City Center
Tue 09:03:48 PM 37.7750 -95.5700 North 411 473 35,600 -950 Descending Kansas City Center
Tue 09:04:48 PM 37.8897 -95.5481 North 411 473 34,700 -900 Descending Kansas City Center
Tue 09:05:48 PM 37.9942 -95.5417 North 405 466 33,800 -1,000 Descending Kansas City Center
Tue 09:06:48 PM 38.1258 -95.5197 North 421 484 32,700 -1,400 Descending Kansas City Center
Tue 09:07:48 PM 38.2508 -95.5108 North 435 501 31,000 -2,300 Descending Kansas City Center
Tue 09:08:48 PM 38.3617 -95.4911 20° North 447 514 28,100 -3,200 Descending Kansas City Center
Tue 09:09:48 PM 38.4808 -95.4369 25° Northeast 447 514 24,600 -3,150 Descending Kansas City Center
Tue 09:10:48 PM 38.6067 -95.3614 26° Northeast 447 514 21,800 -2,700 Descending Kansas City Center
Tue 09:11:48 PM 38.7133 -95.2936 36° Northeast 437 503 19,200 -2,900 Descending Kansas City Center
Tue 09:12:48 PM 38.7994 -95.2144 32° Northeast 422 486 16,000 -3,100 Descending Kansas City Center
Tue 09:13:48 PM 38.9083 -95.1275 27° Northeast 416 479 13,000 -2,050 Descending Kansas City Center
Tue 09:14:48 PM 39.0044 -95.0642 24° Northeast 394 453 11,900 -1,100 Descending Kansas City Center
Tue 09:15:48 PM 39.0817 -95.0194 27° Northeast 353 406 10,800 -1,050 Descending Kansas City Center
Tue 09:16:48 PM 39.1592 -94.9692 26° Northeast 321 369 9,800 -1,100 Descending Kansas City Center
Tue 09:17:48 PM 39.2428 -94.9161 25° Northeast 304 350 8,600 -1,200 Descending Kansas City Center
Tue 09:18:48 PM 39.3136 -94.8736 26° Northeast 292 336 7,400 -1,250 Descending Kansas City Center
Tue 09:19:48 PM 39.3783 -94.8336 45° Northeast 279 321 6,100 -1,350 Descending Kansas City Center
Tue 09:20:48 PM 39.4369 -94.7586 124° Southeast 279 321 4,700 -1,450 Descending Kansas City Center
Tue 09:21:48 PM 39.4058 -94.6994 165° South 170 196 3,200 -1,250 Descending Kansas City Center
Tue 09:22:48 PM 39.3600 -94.6831 198° South 150 173 2,200 -850 Descending Kansas City Center
Tue 09:23:48 PM 39.3286 -94.6964 183° South 129 148 1,500 -600 Descending Kansas City Center
Tue 09:24:48 PM 39.2933 -94.6992 183° South 129 148 1,000 -500 Descending Kansas City Center

Login

Don't have an account? Register now (free) for customized features, flight alerts, and more!